sensor_id;sensor_type;location;lat;lon;timestamp;P1;durP1;ratioP1;P2;durP2;ratioP2
13672;SDS011;6909;52.202;9.876;2022-12-20T00:01:25;6.90;;;4.47;;
13672;SDS011;6909;52.202;9.876;2022-12-20T00:03:55;6.97;;;4.33;;
13672;SDS011;6909;52.202;9.876;2022-12-20T00:06:23;4.57;;;3.27;;
13672;SDS011;6909;52.202;9.876;2022-12-20T00:08:52;7.20;;;4.27;;
13672;SDS011;6909;52.202;9.876;2022-12-20T00:11:22;7.27;;;3.43;;
13672;SDS011;6909;52.202;9.876;2022-12-20T00:13:49;6.63;;;4.10;;
13672;SDS011;6909;52.202;9.876;2022-12-20T00:16:17;7.30;;;3.87;;
13672;SDS011;6909;52.202;9.876;2022-12-20T00:18:45;7.10;;;3.37;;
13672;SDS011;6909;52.202;9.876;2022-12-20T00:21:13;7.93;;;4.40;;
13672;SDS011;6909;52.202;9.876;2022-12-20T00:23:40;6.97;;;3.80;;
13672;SDS011;6909;52.202;9.876;2022-12-20T00:26:07;6.20;;;4.17;;
13672;SDS011;6909;52.202;9.876;2022-12-20T00:28:37;5.67;;;3.77;;
13672;SDS011;6909;52.202;9.876;2022-12-20T00:31:06;6.30;;;3.57;;
13672;SDS011;6909;52.202;9.876;2022-12-20T00:33:34;5.90;;;3.40;;
13672;SDS011;6909;52.202;9.876;2022-12-20T00:36:04;4.97;;;3.73;;
13672;SDS011;6909;52.202;9.876;2022-12-20T00:38:32;7.00;;;3.80;;
13672;SDS011;6909;52.202;9.876;2022-12-20T00:41:00;5.03;;;3.37;;
13672;SDS011;6909;52.202;9.876;2022-12-20T00:43:28;4.77;;;3.57;;
13672;SDS011;6909;52.202;9.876;2022-12-20T00:45:56;9.10;;;4.37;;
13672;SDS011;6909;52.202;9.876;2022-12-20T00:48:23;5.30;;;3.80;;
13672;SDS011;6909;52.202;9.876;2022-12-20T00:50:50;10.13;;;3.87;;
13672;SDS011;6909;52.202;9.876;2022-12-20T00:56:28;4.17;;;2.60;;
13672;SDS011;6909;52.202;9.876;2022-12-20T00:58:56;5.27;;;3.30;;
13672;SDS011;6909;52.202;9.876;2022-12-20T01:01:25;6.17;;;3.30;;
13672;SDS011;6909;52.202;9.876;2022-12-20T01:03:54;6.70;;;3.40;;
13672;SDS011;6909;52.202;9.876;2022-12-20T01:06:21;5.67;;;3.63;;
13672;SDS011;6909;52.202;9.876;2022-12-20T01:08:49;4.47;;;2.90;;
13672;SDS011;6909;52.202;9.876;2022-12-20T01:11:17;4.40;;;3.20;;
13672;SDS011;6909;52.202;9.876;2022-12-20T01:13:45;4.83;;;3.07;;
13672;SDS011;6909;52.202;9.876;2022-12-20T01:16:15;5.30;;;3.53;;
13672;SDS011;6909;52.202;9.876;2022-12-20T01:18:45;5.60;;;3.50;;
13672;SDS011;6909;52.202;9.876;2022-12-20T01:21:12;9.00;;;3.40;;
13672;SDS011;6909;52.202;9.876;2022-12-20T01:23:40;6.70;;;3.77;;
13672;SDS011;6909;52.202;9.876;2022-12-20T01:26:09;5.87;;;3.40;;
13672;SDS011;6909;52.202;9.876;2022-12-20T01:28:38;8.17;;;4.20;;
13672;SDS011;6909;52.202;9.876;2022-12-20T01:31:06;7.30;;;3.63;;
13672;SDS011;6909;52.202;9.876;2022-12-20T01:33:33;6.97;;;4.27;;
13672;SDS011;6909;52.202;9.876;2022-12-20T01:36:03;7.47;;;4.33;;
13672;SDS011;6909;52.202;9.876;2022-12-20T01:38:31;3.90;;;2.77;;
13672;SDS011;6909;52.202;9.876;2022-12-20T01:40:59;7.20;;;4.13;;
13672;SDS011;6909;52.202;9.876;2022-12-20T01:43:42;6.43;;;3.63;;
13672;SDS011;6909;52.202;9.876;2022-12-20T01:46:12;6.10;;;3.07;;
13672;SDS011;6909;52.202;9.876;2022-12-20T01:48:38;5.10;;;3.60;;
13672;SDS011;6909;52.202;9.876;2022-12-20T01:51:07;5.43;;;2.93;;
13672;SDS011;6909;52.202;9.876;2022-12-20T01:53:35;5.40;;;2.40;;
13672;SDS011;6909;52.202;9.876;2022-12-20T01:56:02;10.17;;;3.40;;
13672;SDS011;6909;52.202;9.876;2022-12-20T01:58:32;5.60;;;3.47;;
13672;SDS011;6909;52.202;9.876;2022-12-20T02:01:01;5.40;;;3.10;;
13672;SDS011;6909;52.202;9.876;2022-12-20T02:03:28;4.87;;;3.33;;
13672;SDS011;6909;52.202;9.876;2022-12-20T02:05:56;3.97;;;2.80;;
13672;SDS011;6909;52.202;9.876;2022-12-20T02:08:24;6.00;;;3.23;;
13672;SDS011;6909;52.202;9.876;2022-12-20T02:10:58;4.20;;;2.53;;
13672;SDS011;6909;52.202;9.876;2022-12-20T02:13:33;4.77;;;3.23;;
13672;SDS011;6909;52.202;9.876;2022-12-20T02:16:05;3.90;;;2.83;;
13672;SDS011;6909;52.202;9.876;2022-12-20T02:18:33;4.00;;;2.73;;
13672;SDS011;6909;52.202;9.876;2022-12-20T02:21:21;4.13;;;3.13;;
13672;SDS011;6909;52.202;9.876;2022-12-20T02:24:02;4.00;;;2.80;;
13672;SDS011;6909;52.202;9.876;2022-12-20T02:30:10;5.53;;;2.87;;
13672;SDS011;6909;52.202;9.876;2022-12-20T02:32:43;5.67;;;3.03;;
13672;SDS011;6909;52.202;9.876;2022-12-20T02:35:19;3.90;;;3.33;;
13672;SDS011;6909;52.202;9.876;2022-12-20T02:37:48;5.30;;;3.17;;
13672;SDS011;6909;52.202;9.876;2022-12-20T02:40:17;5.13;;;3.17;;
13672;SDS011;6909;52.202;9.876;2022-12-20T02:42:47;5.90;;;3.00;;
13672;SDS011;6909;52.202;9.876;2022-12-20T02:45:18;5.17;;;2.80;;
13672;SDS011;6909;52.202;9.876;2022-12-20T02:47:48;5.90;;;3.17;;
13672;SDS011;6909;52.202;9.876;2022-12-20T02:50:20;5.30;;;3.20;;
13672;SDS011;6909;52.202;9.876;2022-12-20T02:52:50;4.60;;;3.07;;
13672;SDS011;6909;52.202;9.876;2022-12-20T02:55:18;6.50;;;3.00;;
13672;SDS011;6909;52.202;9.876;2022-12-20T02:57:50;6.50;;;3.27;;
13672;SDS011;6909;52.202;9.876;2022-12-20T03:00:25;5.97;;;3.10;;
13672;SDS011;6909;52.202;9.876;2022-12-20T03:02:57;6.67;;;2.90;;
13672;SDS011;6909;52.202;9.876;2022-12-20T03:05:43;8.30;;;3.07;;
13672;SDS011;6909;52.202;9.876;2022-12-20T03:08:11;4.47;;;2.83;;
13672;SDS011;6909;52.202;9.876;2022-12-20T03:10:38;4.40;;;2.70;;
13672;SDS011;6909;52.202;9.876;2022-12-20T03:13:08;4.47;;;2.87;;
13672;SDS011;6909;52.202;9.876;2022-12-20T03:15:36;4.93;;;3.30;;
13672;SDS011;6909;52.202;9.876;2022-12-20T03:18:03;5.57;;;3.23;;
13672;SDS011;6909;52.202;9.876;2022-12-20T03:20:30;6.17;;;3.27;;
13672;SDS011;6909;52.202;9.876;2022-12-20T03:22:56;5.23;;;3.20;;
13672;SDS011;6909;52.202;9.876;2022-12-20T03:25:23;4.13;;;2.50;;
13672;SDS011;6909;52.202;9.876;2022-12-20T03:27:50;5.00;;;3.47;;
13672;SDS011;6909;52.202;9.876;2022-12-20T03:30:17;5.90;;;3.30;;
13672;SDS011;6909;52.202;9.876;2022-12-20T03:32:45;6.20;;;3.43;;
13672;SDS011;6909;52.202;9.876;2022-12-20T03:35:12;6.30;;;3.23;;
13672;SDS011;6909;52.202;9.876;2022-12-20T03:37:39;3.87;;;2.97;;
13672;SDS011;6909;52.202;9.876;2022-12-20T03:40:06;5.37;;;2.97;;
13672;SDS011;6909;52.202;9.876;2022-12-20T03:42:34;4.50;;;2.53;;
13672;SDS011;6909;52.202;9.876;2022-12-20T03:45:01;8.07;;;3.53;;
13672;SDS011;6909;52.202;9.876;2022-12-20T03:47:29;4.07;;;3.17;;
13672;SDS011;6909;52.202;9.876;2022-12-20T03:49:57;4.10;;;2.97;;
13672;SDS011;6909;52.202;9.876;2022-12-20T03:52:23;5.13;;;3.30;;
13672;SDS011;6909;52.202;9.876;2022-12-20T03:54:50;6.57;;;3.63;;
13672;SDS011;6909;52.202;9.876;2022-12-20T03:57:17;6.77;;;3.10;;
13672;SDS011;6909;52.202;9.876;2022-12-20T03:59:44;6.30;;;3.43;;
13672;SDS011;6909;52.202;9.876;2022-12-20T04:02:10;5.00;;;3.20;;
13672;SDS011;6909;52.202;9.876;2022-12-20T04:04:37;5.37;;;3.57;;
13672;SDS011;6909;52.202;9.876;2022-12-20T04:07:05;5.63;;;2.73;;
13672;SDS011;6909;52.202;9.876;2022-12-20T04:09:32;5.50;;;2.93;;
13672;SDS011;6909;52.202;9.876;2022-12-20T04:12:00;5.27;;;3.00;;
13672;SDS011;6909;52.202;9.876;2022-12-20T04:14:27;4.13;;;2.97;;
13672;SDS011;6909;52.202;9.876;2022-12-20T04:16:53;4.67;;;2.70;;
13672;SDS011;6909;52.202;9.876;2022-12-20T04:19:20;3.67;;;2.93;;
13672;SDS011;6909;52.202;9.876;2022-12-20T04:21:47;5.13;;;3.20;;
13672;SDS011;6909;52.202;9.876;2022-12-20T04:24:15;4.80;;;2.97;;
13672;SDS011;6909;52.202;9.876;2022-12-20T04:26:42;6.20;;;3.33;;
13672;SDS011;6909;52.202;9.876;2022-12-20T04:29:09;4.67;;;3.27;;
13672;SDS011;6909;52.202;9.876;2022-12-20T04:31:36;3.90;;;3.17;;
13672;SDS011;6909;52.202;9.876;2022-12-20T04:34:02;3.40;;;2.50;;
13672;SDS011;6909;52.202;9.876;2022-12-20T04:36:29;7.13;;;3.57;;
13672;SDS011;6909;52.202;9.876;2022-12-20T04:38:56;3.93;;;3.10;;
13672;SDS011;6909;52.202;9.876;2022-12-20T04:41:24;8.23;;;3.43;;
13672;SDS011;6909;52.202;9.876;2022-12-20T04:43:52;5.70;;;3.93;;
13672;SDS011;6909;52.202;9.876;2022-12-20T04:46:21;5.57;;;3.87;;
13672;SDS011;6909;52.202;9.876;2022-12-20T04:48:49;5.00;;;3.83;;
13672;SDS011;6909;52.202;9.876;2022-12-20T04:51:16;6.47;;;3.73;;
13672;SDS011;6909;52.202;9.876;2022-12-20T04:53:43;5.17;;;3.50;;
13672;SDS011;6909;52.202;9.876;2022-12-20T04:56:12;7.20;;;3.27;;
13672;SDS011;6909;52.202;9.876;2022-12-20T04:58:41;5.77;;;3.40;;
13672;SDS011;6909;52.202;9.876;2022-12-20T05:01:08;5.73;;;3.00;;
13672;SDS011;6909;52.202;9.876;2022-12-20T05:03:35;6.53;;;3.43;;
13672;SDS011;6909;52.202;9.876;2022-12-20T05:06:02;4.03;;;3.20;;
13672;SDS011;6909;52.202;9.876;2022-12-20T05:08:29;5.03;;;3.07;;
13672;SDS011;6909;52.202;9.876;2022-12-20T05:10:56;4.20;;;2.93;;
13672;SDS011;6909;52.202;9.876;2022-12-20T05:13:23;4.87;;;3.37;;
13672;SDS011;6909;52.202;9.876;2022-12-20T05:15:51;4.30;;;2.67;;
13672;SDS011;6909;52.202;9.876;2022-12-20T05:18:18;7.37;;;4.47;;
13672;SDS011;6909;52.202;9.876;2022-12-20T05:20:46;5.23;;;3.47;;
13672;SDS011;6909;52.202;9.876;2022-12-20T05:23:13;5.30;;;3.70;;
13672;SDS011;6909;52.202;9.876;2022-12-20T05:25:57;7.97;;;3.77;;
13672;SDS011;6909;52.202;9.876;2022-12-20T05:28:42;7.57;;;3.43;;
13672;SDS011;6909;52.202;9.876;2022-12-20T05:31:10;7.03;;;3.13;;
13672;SDS011;6909;52.202;9.876;2022-12-20T05:33:37;3.87;;;3.03;;
13672;SDS011;6909;52.202;9.876;2022-12-20T05:36:04;5.93;;;3.50;;
13672;SDS011;6909;52.202;9.876;2022-12-20T05:38:31;4.87;;;3.43;;
13672;SDS011;6909;52.202;9.876;2022-12-20T05:40:58;7.73;;;3.73;;
13672;SDS011;6909;52.202;9.876;2022-12-20T05:43:26;4.97;;;3.43;;
13672;SDS011;6909;52.202;9.876;2022-12-20T05:45:53;5.23;;;3.40;;
13672;SDS011;6909;52.202;9.876;2022-12-20T05:48:21;4.53;;;3.27;;
13672;SDS011;6909;52.202;9.876;2022-12-20T05:50:47;6.53;;;4.07;;
13672;SDS011;6909;52.202;9.876;2022-12-20T05:53:15;4.90;;;3.20;;
13672;SDS011;6909;52.202;9.876;2022-12-20T05:55:43;6.73;;;3.30;;
13672;SDS011;6909;52.202;9.876;2022-12-20T05:58:10;6.47;;;3.10;;
13672;SDS011;6909;52.202;9.876;2022-12-20T06:00:38;6.87;;;3.47;;
13672;SDS011;6909;52.202;9.876;2022-12-20T06:03:05;6.90;;;3.53;;
13672;SDS011;6909;52.202;9.876;2022-12-20T06:05:34;6.73;;;3.63;;
13672;SDS011;6909;52.202;9.876;2022-12-20T06:08:01;4.57;;;3.57;;
13672;SDS011;6909;52.202;9.876;2022-12-20T06:10:28;5.17;;;2.97;;
13672;SDS011;6909;52.202;9.876;2022-12-20T06:12:55;8.40;;;3.67;;
13672;SDS011;6909;52.202;9.876;2022-12-20T06:15:22;7.50;;;3.33;;
13672;SDS011;6909;52.202;9.876;2022-12-20T06:17:49;4.67;;;3.37;;
13672;SDS011;6909;52.202;9.876;2022-12-20T06:20:16;4.27;;;3.00;;
13672;SDS011;6909;52.202;9.876;2022-12-20T06:22:44;6.33;;;3.03;;
13672;SDS011;6909;52.202;9.876;2022-12-20T06:25:11;5.13;;;3.43;;
13672;SDS011;6909;52.202;9.876;2022-12-20T06:27:39;6.13;;;3.13;;
13672;SDS011;6909;52.202;9.876;2022-12-20T06:30:06;5.13;;;3.00;;
13672;SDS011;6909;52.202;9.876;2022-12-20T06:32:34;5.97;;;3.33;;
13672;SDS011;6909;52.202;9.876;2022-12-20T06:35:02;4.70;;;3.53;;
13672;SDS011;6909;52.202;9.876;2022-12-20T06:37:30;4.43;;;3.17;;
13672;SDS011;6909;52.202;9.876;2022-12-20T06:39:58;5.90;;;3.27;;
13672;SDS011;6909;52.202;9.876;2022-12-20T06:42:25;6.10;;;2.90;;
13672;SDS011;6909;52.202;9.876;2022-12-20T06:44:52;4.97;;;2.87;;
13672;SDS011;6909;52.202;9.876;2022-12-20T06:47:18;5.10;;;3.23;;
13672;SDS011;6909;52.202;9.876;2022-12-20T06:49:45;5.40;;;3.37;;
13672;SDS011;6909;52.202;9.876;2022-12-20T06:52:12;5.07;;;3.60;;
13672;SDS011;6909;52.202;9.876;2022-12-20T06:54:39;4.80;;;2.73;;
13672;SDS011;6909;52.202;9.876;2022-12-20T06:57:07;6.83;;;3.43;;
13672;SDS011;6909;52.202;9.876;2022-12-20T06:59:34;5.77;;;3.80;;
13672;SDS011;6909;52.202;9.876;2022-12-20T07:02:00;6.83;;;3.77;;
13672;SDS011;6909;52.202;9.876;2022-12-20T07:04:27;8.57;;;3.30;;
13672;SDS011;6909;52.202;9.876;2022-12-20T07:06:54;4.93;;;2.97;;
13672;SDS011;6909;52.202;9.876;2022-12-20T07:09:21;5.40;;;3.20;;
13672;SDS011;6909;52.202;9.876;2022-12-20T07:11:48;4.23;;;2.73;;
13672;SDS011;6909;52.202;9.876;2022-12-20T07:14:17;6.73;;;3.20;;
13672;SDS011;6909;52.202;9.876;2022-12-20T07:16:44;6.03;;;3.27;;
13672;SDS011;6909;52.202;9.876;2022-12-20T07:19:11;6.17;;;3.80;;
13672;SDS011;6909;52.202;9.876;2022-12-20T07:21:39;5.33;;;2.97;;
13672;SDS011;6909;52.202;9.876;2022-12-20T07:24:06;7.50;;;4.20;;
13672;SDS011;6909;52.202;9.876;2022-12-20T07:26:33;5.23;;;3.17;;
13672;SDS011;6909;52.202;9.876;2022-12-20T07:29:00;6.53;;;2.83;;
13672;SDS011;6909;52.202;9.876;2022-12-20T07:31:28;5.13;;;3.43;;
13672;SDS011;6909;52.202;9.876;2022-12-20T07:33:55;4.53;;;3.03;;
13672;SDS011;6909;52.202;9.876;2022-12-20T07:36:22;6.17;;;3.40;;
13672;SDS011;6909;52.202;9.876;2022-12-20T07:38:49;3.60;;;2.50;;
13672;SDS011;6909;52.202;9.876;2022-12-20T07:41:16;7.33;;;3.37;;
13672;SDS011;6909;52.202;9.876;2022-12-20T07:43:43;4.70;;;3.37;;
13672;SDS011;6909;52.202;9.876;2022-12-20T07:46:11;4.03;;;2.60;;
13672;SDS011;6909;52.202;9.876;2022-12-20T07:48:41;4.43;;;3.20;;
13672;SDS011;6909;52.202;9.876;2022-12-20T07:51:09;9.53;;;3.47;;
13672;SDS011;6909;52.202;9.876;2022-12-20T07:53:40;4.47;;;2.93;;
13672;SDS011;6909;52.202;9.876;2022-12-20T07:56:10;5.23;;;3.20;;
13672;SDS011;6909;52.202;9.876;2022-12-20T07:58:38;3.40;;;2.70;;
13672;SDS011;6909;52.202;9.876;2022-12-20T08:01:07;4.60;;;3.17;;
13672;SDS011;6909;52.202;9.876;2022-12-20T08:03:36;5.53;;;3.43;;
13672;SDS011;6909;52.202;9.876;2022-12-20T08:06:07;6.10;;;2.27;;
13672;SDS011;6909;52.202;9.876;2022-12-20T08:08:35;4.07;;;2.93;;
13672;SDS011;6909;52.202;9.876;2022-12-20T08:11:06;4.07;;;3.10;;
13672;SDS011;6909;52.202;9.876;2022-12-20T08:13:35;3.83;;;2.70;;
13672;SDS011;6909;52.202;9.876;2022-12-20T08:16:03;4.37;;;3.30;;
13672;SDS011;6909;52.202;9.876;2022-12-20T08:18:30;3.33;;;2.57;;
13672;SDS011;6909;52.202;9.876;2022-12-20T08:20:57;6.17;;;3.43;;
13672;SDS011;6909;52.202;9.876;2022-12-20T08:23:26;5.77;;;3.23;;
13672;SDS011;6909;52.202;9.876;2022-12-20T08:25:53;3.77;;;2.80;;
13672;SDS011;6909;52.202;9.876;2022-12-20T08:28:19;3.40;;;2.50;;
13672;SDS011;6909;52.202;9.876;2022-12-20T08:30:48;4.37;;;2.80;;
13672;SDS011;6909;52.202;9.876;2022-12-20T08:33:14;4.43;;;2.90;;
13672;SDS011;6909;52.202;9.876;2022-12-20T08:35:41;4.27;;;2.80;;
13672;SDS011;6909;52.202;9.876;2022-12-20T08:38:08;3.27;;;2.20;;
13672;SDS011;6909;52.202;9.876;2022-12-20T08:40:36;5.37;;;2.80;;
13672;SDS011;6909;52.202;9.876;2022-12-20T08:43:03;4.47;;;3.07;;
13672;SDS011;6909;52.202;9.876;2022-12-20T08:45:30;3.53;;;2.57;;
13672;SDS011;6909;52.202;9.876;2022-12-20T08:47:57;3.17;;;2.17;;
13672;SDS011;6909;52.202;9.876;2022-12-20T08:50:23;4.67;;;2.67;;
13672;SDS011;6909;52.202;9.876;2022-12-20T08:52:51;4.40;;;2.73;;
13672;SDS011;6909;52.202;9.876;2022-12-20T08:55:17;4.20;;;2.43;;
13672;SDS011;6909;52.202;9.876;2022-12-20T08:57:45;5.73;;;3.00;;
13672;SDS011;6909;52.202;9.876;2022-12-20T09:00:13;3.33;;;2.57;;
13672;SDS011;6909;52.202;9.876;2022-12-20T09:02:40;4.73;;;2.60;;
13672;SDS011;6909;52.202;9.876;2022-12-20T09:05:07;6.07;;;2.70;;
13672;SDS011;6909;52.202;9.876;2022-12-20T09:07:34;3.67;;;3.00;;
13672;SDS011;6909;52.202;9.876;2022-12-20T09:10:01;4.07;;;2.70;;
13672;SDS011;6909;52.202;9.876;2022-12-20T09:12:28;3.33;;;2.37;;
13672;SDS011;6909;52.202;9.876;2022-12-20T09:14:56;5.00;;;2.43;;
13672;SDS011;6909;52.202;9.876;2022-12-20T09:17:23;4.47;;;2.83;;
13672;SDS011;6909;52.202;9.876;2022-12-20T09:19:49;4.60;;;2.70;;
13672;SDS011;6909;52.202;9.876;2022-12-20T09:22:16;4.23;;;2.33;;
13672;SDS011;6909;52.202;9.876;2022-12-20T09:24:43;2.90;;;1.90;;
13672;SDS011;6909;52.202;9.876;2022-12-20T09:27:09;3.47;;;2.27;;
13672;SDS011;6909;52.202;9.876;2022-12-20T09:29:36;2.53;;;1.93;;
13672;SDS011;6909;52.202;9.876;2022-12-20T09:32:04;3.53;;;2.13;;
13672;SDS011;6909;52.202;9.876;2022-12-20T09:34:31;2.77;;;2.33;;
13672;SDS011;6909;52.202;9.876;2022-12-20T09:36:58;5.10;;;2.50;;
13672;SDS011;6909;52.202;9.876;2022-12-20T09:39:25;5.13;;;2.17;;
13672;SDS011;6909;52.202;9.876;2022-12-20T09:41:51;2.53;;;2.03;;
13672;SDS011;6909;52.202;9.876;2022-12-20T09:44:19;3.10;;;2.30;;
13672;SDS011;6909;52.202;9.876;2022-12-20T09:46:51;4.77;;;2.43;;
13672;SDS011;6909;52.202;9.876;2022-12-20T09:49:23;4.33;;;2.10;;
13672;SDS011;6909;52.202;9.876;2022-12-20T09:51:58;6.37;;;2.27;;
13672;SDS011;6909;52.202;9.876;2022-12-20T09:54:45;2.90;;;2.27;;
13672;SDS011;6909;52.202;9.876;2022-12-20T09:57:23;2.40;;;1.73;;
13672;SDS011;6909;52.202;9.876;2022-12-20T09:59:58;2.27;;;2.07;;
13672;SDS011;6909;52.202;9.876;2022-12-20T10:02:25;3.20;;;2.07;;
13672;SDS011;6909;52.202;9.876;2022-12-20T10:04:56;3.63;;;1.97;;
13672;SDS011;6909;52.202;9.876;2022-12-20T10:07:28;1.93;;;1.63;;
13672;SDS011;6909;52.202;9.876;2022-12-20T10:10:13;5.50;;;2.10;;
13672;SDS011;6909;52.202;9.876;2022-12-20T10:13:05;2.13;;;1.50;;
13672;SDS011;6909;52.202;9.876;2022-12-20T10:15:43;2.60;;;1.73;;
13672;SDS011;6909;52.202;9.876;2022-12-20T10:18:23;3.23;;;1.80;;
13672;SDS011;6909;52.202;9.876;2022-12-20T10:21:06;3.83;;;1.83;;
13672;SDS011;6909;52.202;9.876;2022-12-20T10:23:41;4.43;;;2.10;;
13672;SDS011;6909;52.202;9.876;2022-12-20T10:26:12;2.67;;;1.73;;
13672;SDS011;6909;52.202;9.876;2022-12-20T10:28:39;3.20;;;1.90;;
13672;SDS011;6909;52.202;9.876;2022-12-20T10:31:06;3.37;;;1.90;;
13672;SDS011;6909;52.202;9.876;2022-12-20T10:33:38;1.77;;;1.57;;
13672;SDS011;6909;52.202;9.876;2022-12-20T10:36:20;3.97;;;2.00;;
13672;SDS011;6909;52.202;9.876;2022-12-20T10:38:50;3.13;;;1.87;;
13672;SDS011;6909;52.202;9.876;2022-12-20T10:41:19;2.87;;;1.67;;
13672;SDS011;6909;52.202;9.876;2022-12-20T10:43:48;3.50;;;2.40;;
13672;SDS011;6909;52.202;9.876;2022-12-20T10:46:18;2.57;;;1.33;;
13672;SDS011;6909;52.202;9.876;2022-12-20T10:48:46;2.53;;;1.60;;
13672;SDS011;6909;52.202;9.876;2022-12-20T10:51:15;2.97;;;1.50;;
13672;SDS011;6909;52.202;9.876;2022-12-20T10:53:53;2.90;;;2.00;;
13672;SDS011;6909;52.202;9.876;2022-12-20T10:56:22;2.20;;;1.70;;
13672;SDS011;6909;52.202;9.876;2022-12-20T10:58:52;2.53;;;1.50;;
13672;SDS011;6909;52.202;9.876;2022-12-20T11:01:21;2.40;;;1.63;;
13672;SDS011;6909;52.202;9.876;2022-12-20T11:03:55;2.60;;;1.50;;
13672;SDS011;6909;52.202;9.876;2022-12-20T11:06:25;2.83;;;1.60;;
13672;SDS011;6909;52.202;9.876;2022-12-20T11:11:58;3.77;;;1.63;;
13672;SDS011;6909;52.202;9.876;2022-12-20T11:14:27;2.17;;;1.57;;
13672;SDS011;6909;52.202;9.876;2022-12-20T11:16:55;4.80;;;2.00;;
13672;SDS011;6909;52.202;9.876;2022-12-20T11:19:37;2.03;;;1.87;;
13672;SDS011;6909;52.202;9.876;2022-12-20T11:22:19;4.00;;;1.73;;
13672;SDS011;6909;52.202;9.876;2022-12-20T11:24:59;2.20;;;1.70;;
13672;SDS011;6909;52.202;9.876;2022-12-20T11:27:37;2.67;;;1.93;;
13672;SDS011;6909;52.202;9.876;2022-12-20T11:30:13;2.27;;;1.63;;
13672;SDS011;6909;52.202;9.876;2022-12-20T11:32:57;2.23;;;1.70;;
13672;SDS011;6909;52.202;9.876;2022-12-20T11:35:41;2.53;;;1.60;;
13672;SDS011;6909;52.202;9.876;2022-12-20T11:38:16;1.53;;;1.30;;
13672;SDS011;6909;52.202;9.876;2022-12-20T11:41:01;2.30;;;1.60;;
13672;SDS011;6909;52.202;9.876;2022-12-20T11:43:47;1.83;;;1.60;;
13672;SDS011;6909;52.202;9.876;2022-12-20T11:46:27;1.70;;;1.50;;
13672;SDS011;6909;52.202;9.876;2022-12-20T11:49:08;2.57;;;1.60;;
13672;SDS011;6909;52.202;9.876;2022-12-20T11:51:51;1.50;;;1.30;;
13672;SDS011;6909;52.202;9.876;2022-12-20T11:54:27;3.90;;;1.20;;
13672;SDS011;6909;52.202;9.876;2022-12-20T11:57:03;1.17;;;1.07;;
13672;SDS011;6909;52.202;9.876;2022-12-20T11:59:36;1.43;;;1.27;;
13672;SDS011;6909;52.202;9.876;2022-12-20T12:02:09;3.00;;;1.60;;
13672;SDS011;6909;52.202;9.876;2022-12-20T12:04:40;1.70;;;1.27;;
13672;SDS011;6909;52.202;9.876;2022-12-20T12:07:12;3.93;;;1.40;;
13672;SDS011;6909;52.202;9.876;2022-12-20T12:09:46;1.73;;;1.20;;
13672;SDS011;6909;52.202;9.876;2022-12-20T12:12:21;1.53;;;1.33;;
13672;SDS011;6909;52.202;9.876;2022-12-20T12:14:52;1.53;;;1.37;;
13672;SDS011;6909;52.202;9.876;2022-12-20T12:17:26;2.20;;;1.67;;
13672;SDS011;6909;52.202;9.876;2022-12-20T12:20:01;1.87;;;1.70;;
13672;SDS011;6909;52.202;9.876;2022-12-20T12:22:43;2.50;;;1.60;;
13672;SDS011;6909;52.202;9.876;2022-12-20T12:25:12;1.93;;;1.57;;
13672;SDS011;6909;52.202;9.876;2022-12-20T12:27:43;5.53;;;2.00;;
13672;SDS011;6909;52.202;9.876;2022-12-20T12:30:11;3.40;;;1.30;;
13672;SDS011;6909;52.202;9.876;2022-12-20T12:32:40;3.23;;;1.83;;
13672;SDS011;6909;52.202;9.876;2022-12-20T12:35:22;2.03;;;1.57;;
13672;SDS011;6909;52.202;9.876;2022-12-20T12:38:28;1.97;;;1.60;;
13672;SDS011;6909;52.202;9.876;2022-12-20T12:41:22;2.63;;;1.57;;
13672;SDS011;6909;52.202;9.876;2022-12-20T12:44:23;3.37;;;1.60;;
13672;SDS011;6909;52.202;9.876;2022-12-20T12:46:58;3.10;;;1.67;;
13672;SDS011;6909;52.202;9.876;2022-12-20T12:49:28;2.53;;;1.83;;
13672;SDS011;6909;52.202;9.876;2022-12-20T12:51:57;2.43;;;1.60;;
13672;SDS011;6909;52.202;9.876;2022-12-20T12:54:26;1.93;;;1.40;;
13672;SDS011;6909;52.202;9.876;2022-12-20T12:56:58;2.77;;;1.80;;
13672;SDS011;6909;52.202;9.876;2022-12-20T13:05:30;1.57;;;1.27;;
13672;SDS011;6909;52.202;9.876;2022-12-20T13:08:00;3.33;;;1.63;;
13672;SDS011;6909;52.202;9.876;2022-12-20T13:13:24;1.70;;;1.47;;
13672;SDS011;6909;52.202;9.876;2022-12-20T13:18:59;1.27;;;1.00;;
13672;SDS011;6909;52.202;9.876;2022-12-20T13:21:38;3.70;;;1.40;;
13672;SDS011;6909;52.202;9.876;2022-12-20T13:27:15;2.37;;;1.63;;
13672;SDS011;6909;52.202;9.876;2022-12-20T13:29:51;2.90;;;1.37;;
13672;SDS011;6909;52.202;9.876;2022-12-20T13:35:30;4.80;;;1.77;;
13672;SDS011;6909;52.202;9.876;2022-12-20T13:38:34;2.07;;;1.40;;
13672;SDS011;6909;52.202;9.876;2022-12-20T13:41:24;2.80;;;1.17;;
13672;SDS011;6909;52.202;9.876;2022-12-20T13:44:00;1.87;;;1.20;;
13672;SDS011;6909;52.202;9.876;2022-12-20T13:46:39;1.53;;;1.30;;
13672;SDS011;6909;52.202;9.876;2022-12-20T13:49:14;2.13;;;1.30;;
13672;SDS011;6909;52.202;9.876;2022-12-20T13:51:47;1.93;;;1.27;;
13672;SDS011;6909;52.202;9.876;2022-12-20T13:54:16;0.97;;;0.80;;
13672;SDS011;6909;52.202;9.876;2022-12-20T13:56:46;1.10;;;1.00;;
13672;SDS011;6909;52.202;9.876;2022-12-20T13:59:15;1.10;;;1.00;;
13672;SDS011;6909;52.202;9.876;2022-12-20T14:01:47;1.13;;;1.03;;
13672;SDS011;6909;52.202;9.876;2022-12-20T14:04:16;1.20;;;0.90;;
13672;SDS011;6909;52.202;9.876;2022-12-20T14:06:43;1.17;;;1.03;;
13672;SDS011;6909;52.202;9.876;2022-12-20T14:09:29;1.73;;;1.50;;
13672;SDS011;6909;52.202;9.876;2022-12-20T14:12:02;2.40;;;1.27;;
13672;SDS011;6909;52.202;9.876;2022-12-20T14:14:30;2.70;;;0.90;;
13672;SDS011;6909;52.202;9.876;2022-12-20T14:17:13;1.03;;;0.87;;
13672;SDS011;6909;52.202;9.876;2022-12-20T14:19:41;1.40;;;1.20;;
13672;SDS011;6909;52.202;9.876;2022-12-20T14:22:08;2.83;;;1.30;;
13672;SDS011;6909;52.202;9.876;2022-12-20T14:24:37;2.30;;;1.00;;
13672;SDS011;6909;52.202;9.876;2022-12-20T14:27:07;1.50;;;1.10;;
13672;SDS011;6909;52.202;9.876;2022-12-20T14:29:37;2.80;;;1.30;;
13672;SDS011;6909;52.202;9.876;2022-12-20T14:32:05;2.03;;;1.00;;
13672;SDS011;6909;52.202;9.876;2022-12-20T14:34:42;3.20;;;1.60;;
13672;SDS011;6909;52.202;9.876;2022-12-20T14:37:29;2.17;;;1.47;;
13672;SDS011;6909;52.202;9.876;2022-12-20T14:39:59;1.50;;;0.90;;
13672;SDS011;6909;52.202;9.876;2022-12-20T14:42:30;1.90;;;1.13;;
13672;SDS011;6909;52.202;9.876;2022-12-20T14:45:03;2.07;;;1.30;;
13672;SDS011;6909;52.202;9.876;2022-12-20T14:47:31;1.10;;;1.00;;
13672;SDS011;6909;52.202;9.876;2022-12-20T14:49:59;1.57;;;1.20;;
13672;SDS011;6909;52.202;9.876;2022-12-20T14:52:28;2.37;;;1.40;;
13672;SDS011;6909;52.202;9.876;2022-12-20T14:55:01;2.10;;;0.90;;
13672;SDS011;6909;52.202;9.876;2022-12-20T14:57:37;1.53;;;1.03;;
13672;SDS011;6909;52.202;9.876;2022-12-20T15:00:09;1.47;;;1.10;;
13672;SDS011;6909;52.202;9.876;2022-12-20T15:02:39;1.23;;;1.03;;
13672;SDS011;6909;52.202;9.876;2022-12-20T15:05:08;1.73;;;1.50;;
13672;SDS011;6909;52.202;9.876;2022-12-20T15:07:50;1.83;;;0.93;;
13672;SDS011;6909;52.202;9.876;2022-12-20T15:10:18;1.63;;;1.33;;
13672;SDS011;6909;52.202;9.876;2022-12-20T15:12:44;1.73;;;1.20;;
13672;SDS011;6909;52.202;9.876;2022-12-20T15:15:11;2.10;;;1.30;;
13672;SDS011;6909;52.202;9.876;2022-12-20T15:17:40;1.63;;;1.00;;
13672;SDS011;6909;52.202;9.876;2022-12-20T15:20:07;1.80;;;1.00;;
13672;SDS011;6909;52.202;9.876;2022-12-20T15:22:37;1.07;;;0.97;;
13672;SDS011;6909;52.202;9.876;2022-12-20T15:25:07;1.13;;;1.00;;
13672;SDS011;6909;52.202;9.876;2022-12-20T15:27:41;2.63;;;1.10;;
13672;SDS011;6909;52.202;9.876;2022-12-20T15:30:10;1.40;;;1.00;;
13672;SDS011;6909;52.202;9.876;2022-12-20T15:32:37;0.80;;;0.80;;
13672;SDS011;6909;52.202;9.876;2022-12-20T15:35:10;1.27;;;1.17;;
13672;SDS011;6909;52.202;9.876;2022-12-20T15:37:37;2.40;;;1.10;;
13672;SDS011;6909;52.202;9.876;2022-12-20T15:40:05;1.60;;;0.90;;
13672;SDS011;6909;52.202;9.876;2022-12-20T15:42:32;2.27;;;1.37;;
13672;SDS011;6909;52.202;9.876;2022-12-20T15:45:00;2.17;;;1.40;;
13672;SDS011;6909;52.202;9.876;2022-12-20T15:47:27;1.53;;;1.10;;